LEPP/PNA METAR and TAF weather

Enter ICAO airport designator
Station Type Date Time Source
LEPP METAR 2019/06/26 16:00 UTC NOAA

LEPP 261600Z 15010KT 100V210 CAVOK 36/11 Q1015


Station Type Date Time Source
LEPP Decoded METAR 2019/06/26 16:00 UTC NOAA

Pamplona / Noain, Spain (LEPP) 42-46N 001-38W 453M
Jun 26, 2019 - 12:00 PM EDT / 2019.06.26 1600 UTC
Wind: from the SSE (150 degrees) at 12 MPH (10 KT) (direction variable):0
Visibility: greater than 7 mile(s):0
Temperature: 96 F (36 C)
Dew Point: 51 F (11 C)
Relative Humidity: 22%
Pressure (altimeter): 29.97 in. Hg (1015 hPa)
ob: LEPP 261600Z 15010KT 100V210 CAVOK 36/11 Q1015
cycle: 16

Station Type Date Time Source
LEPP TAF 2019/06/26 15:27 UTC NOAA

TAF LEPP 261400Z 2615/2715 16010KT CAVOK TX38/2616Z TN22/2705Z
TEMPO 2615/2620 16015G25KT PROB40
TEMPO 2615/2618 13018G30KT FEW040TCU
TEMPO 2621/2709 VRB06KT

Example: see airport list